Time;durP1;ratioP1;P1;durP2;ratioP2;P2;SDS_P1;SDS_P2;PMS_P1;PMS_P2;Temp;Humidity;BMP_temperature;BMP_pressure;BME280_temperature;BME280_humidity;BME280_pressure;Samples;Min_cycle;Max_cycle;Signal;HPM_P1;HPM_P2
2021/07/24 00:01:53;;;;;;;24.70;17.15;;;21.10;99.90;;;;;;5056667;28;20039;-69
2021/07/24 00:04:18;;;;;;;24.75;17.05;;;21.10;99.90;;;;;;5053066;28;20574;-69
2021/07/24 00:06:45;;;;;;;21.60;14.65;;;21.00;99.90;;;;;;5049656;28;20053;-69
2021/07/24 00:09:11;;;;;;;27.38;15.52;;;21.00;99.90;;;;;;5047410;28;20410;-69
2021/07/24 00:11:37;;;;;;;23.00;15.88;;;21.00;99.90;;;;;;5048199;28;20018;-69
2021/07/24 00:14:03;;;;;;;20.77;15.20;;;20.90;99.90;;;;;;5047074;28;20100;-69
2021/07/24 00:16:28;;;;;;;19.33;14.73;;;21.00;99.90;;;;;;5045663;28;20033;-69
2021/07/24 00:18:54;;;;;;;23.00;15.25;;;21.00;99.90;;;;;;5047799;28;20029;-69
2021/07/24 00:21:20;;;;;;;20.33;15.35;;;21.00;99.90;;;;;;5044308;28;20381;-69
2021/07/24 00:23:46;;;;;;;25.08;14.88;;;21.00;99.90;;;;;;5052997;28;20024;-69
2021/07/24 00:26:12;;;;;;;20.67;15.05;;;21.00;99.90;;;;;;5049584;28;20397;-69
2021/07/24 00:28:39;;;;;;;20.33;15.20;;;20.90;99.90;;;;;;5052248;28;20037;-69
2021/07/24 00:31:05;;;;;;;22.40;14.80;;;20.90;99.90;;;;;;5051487;28;20017;-69
2021/07/24 00:33:31;;;;;;;19.17;15.30;;;20.80;99.90;;;;;;5052893;28;20492;-70
2021/07/24 00:35:56;;;;;;;19.90;15.93;;;20.90;99.90;;;;;;5046600;28;20489;-69
2021/07/24 00:38:22;;;;;;;27.20;16.08;;;20.90;99.90;;;;;;5047474;28;20044;-70
2021/07/24 00:41:01;;;;;;;20.05;14.70;;;20.90;99.90;;;;;;5050538;28;20035;-69
2021/07/24 00:43:29;;;;;;;20.67;14.18;;;20.60;99.90;;;;;;5052209;28;20052;-70
2021/07/24 00:45:56;;;;;;;21.33;15.70;;;20.60;99.90;;;;;;5047440;28;20025;-69
2021/07/24 00:48:23;;;;;;;17.77;13.98;;;20.60;99.90;;;;;;5053056;28;20041;-69
2021/07/24 00:50:52;;;;;;;19.60;15.00;;;20.60;99.90;;;;;;5052536;28;20025;-69
2021/07/24 00:53:25;;;;;;;19.52;14.93;;;20.70;99.90;;;;;;5054459;28;20028;-71
2021/07/24 00:55:52;;;;;;;20.20;15.07;;;20.60;99.90;;;;;;5051764;28;20131;-70
2021/07/24 00:58:37;;;;;;;21.60;15.35;;;20.60;99.90;;;;;;5053762;28;20071;-70
2021/07/24 01:01:05;;;;;;;21.95;14.70;;;20.50;99.90;;;;;;5053688;28;20045;-70
2021/07/24 01:03:30;;;;;;;23.52;15.88;;;20.20;99.90;;;;;;5055508;28;20104;-70
2021/07/24 01:05:57;;;;;;;21.45;16.73;;;20.30;99.90;;;;;;5046779;28;20458;-71
2021/07/24 01:08:24;;;;;;;21.23;15.25;;;20.30;99.90;;;;;;5049325;28;20432;-70
2021/07/24 01:10:52;;;;;;;25.58;18.35;;;20.40;99.90;;;;;;5053307;28;20079;-70
2021/07/24 01:13:19;;;;;;;23.85;17.67;;;20.40;99.90;;;;;;5045209;28;20492;-70
2021/07/24 01:15:50;;;;;;;25.77;18.35;;;20.40;99.90;;;;;;5051589;28;20032;-70
2021/07/24 01:18:16;;;;;;;23.83;18.80;;;20.40;99.90;;;;;;5054045;28;20516;-70
2021/07/24 01:20:43;;;;;;;23.10;17.45;;;20.40;99.90;;;;;;5050059;28;20025;-69
2021/07/24 01:23:10;;;;;;;22.75;16.67;;;20.20;99.90;;;;;;5049312;28;20067;-69
2021/07/24 01:25:43;;;;;;;26.35;16.67;;;20.10;99.90;;;;;;5055346;28;20041;-70
2021/07/24 01:28:09;;;;;;;25.52;16.50;;;20.20;99.90;;;;;;5051621;28;20048;-70
2021/07/24 01:30:35;;;;;;;23.58;17.23;;;20.20;99.90;;;;;;5055381;28;20094;-70
2021/07/24 01:33:00;;;;;;;26.58;18.50;;;20.20;99.90;;;;;;5048210;28;20060;-70
2021/07/24 01:35:26;;;;;;;25.35;17.23;;;20.20;99.90;;;;;;5055729;28;20021;-70
2021/07/24 01:37:52;;;;;;;28.08;17.88;;;20.10;99.90;;;;;;5054713;28;20025;-70
2021/07/24 01:40:17;;;;;;;25.17;18.20;;;20.20;99.90;;;;;;5053098;28;20096;-69
2021/07/24 01:42:43;;;;;;;27.13;17.35;;;20.00;99.90;;;;;;5055876;28;20030;-70
2021/07/24 01:45:09;;;;;;;22.70;16.92;;;20.00;99.90;;;;;;5054343;28;20039;-70
2021/07/24 01:47:36;;;;;;;24.73;17.48;;;19.90;99.90;;;;;;5053169;28;20040;-70
2021/07/24 01:52:50;;;;;;;25.92;18.02;;;19.90;99.90;;;;;;5052513;28;20113;-70
2021/07/24 01:55:28;;;;;;;22.65;15.82;;;19.90;99.90;;;;;;5052449;28;20401;-70
2021/07/24 01:57:56;;;;;;;25.38;16.40;;;19.80;99.90;;;;;;5049464;28;20025;-69
2021/07/24 02:00:22;;;;;;;23.48;16.52;;;19.80;99.90;;;;;;5052762;28;20013;-70
2021/07/24 02:02:50;;;;;;;22.27;16.48;;;19.70;99.90;;;;;;5059862;28;20020;-69
2021/07/24 02:05:48;;;;;;;24.25;17.23;;;19.70;99.90;;;;;;5048393;28;20032;-70
2021/07/24 02:08:25;;;;;;;23.40;16.45;;;19.60;99.90;;;;;;5058200;28;20102;-70
2021/07/24 02:10:51;;;;;;;25.58;17.50;;;19.60;99.90;;;;;;5051677;28;20031;-69
2021/07/24 02:13:19;;;;;;;21.15;16.00;;;19.60;99.90;;;;;;5059585;28;20021;-69
2021/07/24 02:15:45;;;;;;;23.80;16.60;;;19.60;99.90;;;;;;5049102;28;20094;-70
2021/07/24 02:18:16;;;;;;;26.23;18.02;;;19.50;99.90;;;;;;5054998;28;20524;-69
2021/07/24 02:20:44;;;;;;;25.05;17.60;;;19.50;99.90;;;;;;5051579;28;20381;-69
2021/07/24 02:23:10;;;;;;;28.92;17.45;;;19.50;99.90;;;;;;5055157;28;20552;-69
2021/07/24 02:25:35;;;;;;;23.63;17.60;;;19.50;99.90;;;;;;5061365;28;20147;-70
2021/07/24 02:28:01;;;;;;;26.58;17.35;;;19.40;99.90;;;;;;5055646;28;20104;-69
2021/07/24 02:30:27;;;;;;;26.05;17.70;;;19.30;99.90;;;;;;5056643;28;20032;-69
2021/07/24 02:32:52;;;;;;;24.25;16.55;;;19.30;99.90;;;;;;5047426;28;20063;-70
2021/07/24 02:35:18;;;;;;;26.00;16.40;;;19.30;99.90;;;;;;5057698;28;20029;-70
2021/07/24 02:37:43;;;;;;;27.60;17.80;;;19.20;99.90;;;;;;5057883;28;20033;-69
2021/07/24 02:40:09;;;;;;;27.83;17.27;;;19.10;99.90;;;;;;5046511;28;20091;-70
2021/07/24 02:42:35;;;;;;;27.45;19.20;;;19.10;99.90;;;;;;5057265;28;20537;-69
2021/07/24 02:45:01;;;;;;;26.35;18.33;;;19.20;99.90;;;;;;5055507;28;20032;-69
2021/07/24 02:47:29;;;;;;;27.20;18.23;;;19.20;99.90;;;;;;5052131;28;20079;-69
2021/07/24 02:49:55;;;;;;;25.92;18.30;;;19.10;99.90;;;;;;5065965;28;20024;-70
2021/07/24 02:52:20;;;;;;;22.73;18.13;;;19.00;99.90;;;;;;5058426;28;20100;-70
2021/07/24 02:54:46;;;;;;;24.60;17.63;;;19.00;99.90;;;;;;5046679;28;20030;-70
2021/07/24 02:57:12;;;;;;;31.60;18.95;;;19.10;99.90;;;;;;5056615;28;20029;-70
2021/07/24 02:59:37;;;;;;;26.80;17.10;;;19.00;99.90;;;;;;5053658;28;20409;-69
2021/07/24 03:02:03;;;;;;;28.88;17.73;;;19.10;99.90;;;;;;5044598;28;20099;-69
2021/07/24 03:04:29;;;;;;;26.77;17.75;;;19.10;99.90;;;;;;5059664;28;20024;-69
2021/07/24 03:06:55;;;;;;;24.77;17.50;;;19.20;99.90;;;;;;5056800;28;20021;-69
2021/07/24 03:09:20;;;;;;;27.58;17.90;;;19.20;99.90;;;;;;5045456;28;20477;-70
2021/07/24 03:11:46;;;;;;;22.95;17.48;;;19.20;99.90;;;;;;5058867;28;20037;-69
2021/07/24 03:14:12;;;;;;;19.70;15.70;;;19.10;99.90;;;;;;5053169;28;20111;-70
2021/07/24 03:16:37;;;;;;;22.33;17.20;;;19.00;99.90;;;;;;5057552;28;20473;-70
2021/07/24 03:19:03;;;;;;;22.13;16.70;;;19.20;99.90;;;;;;5055195;28;20063;-70
2021/07/24 03:21:29;;;;;;;24.23;17.13;;;19.20;99.90;;;;;;5047751;28;20366;-69
2021/07/24 03:23:54;;;;;;;26.45;17.20;;;19.10;99.90;;;;;;5058981;28;20029;-70
2021/07/24 03:26:20;;;;;;;23.40;16.45;;;19.20;99.90;;;;;;5068679;28;20021;-69
2021/07/24 03:28:46;;;;;;;25.30;16.25;;;19.20;99.90;;;;;;5056397;28;20385;-70
2021/07/24 03:31:12;;;;;;;26.05;18.42;;;19.20;99.90;;;;;;5064331;28;20035;-70
2021/07/24 03:33:38;;;;;;;26.52;18.02;;;19.20;99.90;;;;;;5047376;28;20044;-70
2021/07/24 03:36:07;;;;;;;28.27;19.50;;;19.20;99.90;;;;;;5055245;28;20033;-70
2021/07/24 03:38:32;;;;;;;26.10;18.52;;;19.20;99.90;;;;;;5057616;28;20032;-70
2021/07/24 03:40:58;;;;;;;27.95;19.75;;;19.20;99.90;;;;;;5059663;28;20028;-70
2021/07/24 03:43:24;;;;;;;27.05;18.40;;;19.30;99.90;;;;;;5049300;28;20027;-69
2021/07/24 03:45:51;;;;;;;26.02;18.00;;;19.20;99.90;;;;;;5059044;28;20522;-69
2021/07/24 03:48:16;;;;;;;24.48;17.02;;;19.20;99.90;;;;;;5058189;28;20036;-70
2021/07/24 03:50:42;;;;;;;25.38;17.23;;;19.30;99.90;;;;;;5052596;28;21369;-69
2021/07/24 03:53:08;;;;;;;25.05;18.77;;;19.30;99.90;;;;;;5051426;28;20487;-70
2021/07/24 03:55:35;;;;;;;24.52;18.08;;;19.30;99.90;;;;;;5058875;28;20051;-70
2021/07/24 03:58:01;;;;;;;25.92;18.77;;;19.40;99.90;;;;;;5050216;28;20118;-70
2021/07/24 04:00:29;;;;;;;25.15;17.77;;;19.30;99.90;;;;;;5049500;28;20029;-70
2021/07/24 04:03:01;;;;;;;25.38;18.52;;;19.40;99.90;;;;;;5055470;28;20384;-70
2021/07/24 04:05:26;;;;;;;26.80;18.83;;;19.40;99.90;;;;;;5052860;28;20100;-69
2021/07/24 04:07:52;;;;;;;25.60;18.88;;;19.20;99.90;;;;;;5051817;28;20112;-70
2021/07/24 04:10:18;;;;;;;24.60;17.85;;;19.10;99.90;;;;;;5065069;28;20033;-70
2021/07/24 04:12:43;;;;;;;24.00;16.75;;;19.10;99.90;;;;;;5057786;28;20025;-69
2021/07/24 04:15:10;;;;;;;30.88;17.38;;;19.10;99.90;;;;;;5045227;28;20108;-70
2021/07/24 04:17:36;;;;;;;29.25;16.63;;;19.10;99.90;;;;;;5046743;28;20021;-70
2021/07/24 04:20:02;;;;;;;24.95;17.48;;;19.20;99.90;;;;;;5058737;28;20472;-70
2021/07/24 04:22:28;;;;;;;23.60;16.98;;;19.10;99.90;;;;;;5051682;28;20025;-70
2021/07/24 04:24:53;;;;;;;24.13;17.95;;;19.00;99.90;;;;;;5048290;28;20025;-68
2021/07/24 04:27:19;;;;;;;26.25;18.65;;;19.10;99.90;;;;;;5055252;28;20033;-68
2021/07/24 04:29:45;;;;;;;23.48;17.60;;;19.20;99.90;;;;;;5059258;28;20407;-69
2021/07/24 04:32:10;;;;;;;26.40;17.95;;;19.20;99.90;;;;;;5050416;28;20028;-68
2021/07/24 04:34:36;;;;;;;25.85;19.63;;;19.20;99.90;;;;;;5056907;28;20071;-68
2021/07/24 04:37:02;;;;;;;29.38;19.83;;;19.20;99.90;;;;;;5048165;28;20021;-68
2021/07/24 04:39:28;;;;;;;34.03;18.33;;;19.10;99.90;;;;;;5059273;28;20043;-68
2021/07/24 04:41:53;;;;;;;25.42;18.17;;;19.10;99.90;;;;;;5053030;28;20457;-68
2021/07/24 04:44:19;;;;;;;27.75;18.75;;;19.10;99.90;;;;;;5053483;28;20037;-68
2021/07/24 04:46:44;;;;;;;25.95;18.15;;;19.10;99.90;;;;;;5063918;28;20092;-68
2021/07/24 04:49:10;;;;;;;26.05;18.45;;;19.10;99.90;;;;;;5053659;28;20047;-68
2021/07/24 04:51:36;;;;;;;26.17;18.20;;;19.20;99.90;;;;;;5044549;28;20025;-68
2021/07/24 04:54:06;;;;;;;27.63;18.08;;;19.10;99.90;;;;;;5054954;28;20532;-68
2021/07/24 04:56:32;;;;;;;35.85;19.30;;;19.10;99.90;;;;;;5050420;28;20032;-68
2021/07/24 04:59:01;;;;;;;26.02;19.27;;;19.10;99.90;;;;;;5055496;28;20401;-69
2021/07/24 05:01:27;;;;;;;25.45;17.85;;;19.10;99.90;;;;;;5064998;28;20071;-69
2021/07/24 05:03:53;;;;;;;28.00;19.02;;;19.20;99.90;;;;;;5054566;28;20033;-69
2021/07/24 05:06:19;;;;;;;25.67;17.63;;;19.30;99.90;;;;;;5052454;28;20060;-68
2021/07/24 05:08:45;;;;;;;32.30;19.15;;;19.30;99.90;;;;;;5058749;28;20047;-68
2021/07/24 05:11:10;;;;;;;24.42;17.88;;;19.40;99.90;;;;;;5056044;28;20025;-68
2021/07/24 05:13:36;;;;;;;28.42;18.08;;;19.40;99.90;;;;;;5058147;28;20431;-68
2021/07/24 05:16:01;;;;;;;25.08;17.85;;;19.30;99.90;;;;;;5049746;28;20021;-69
2021/07/24 05:18:27;;;;;;;31.75;17.88;;;19.40;99.90;;;;;;5054846;28;20389;-68
2021/07/24 05:20:53;;;;;;;27.83;18.85;;;19.40;99.90;;;;;;5053321;28;20517;-69
2021/07/24 05:23:18;;;;;;;25.13;18.10;;;19.50;99.90;;;;;;5052260;28;20037;-71
2021/07/24 05:25:44;;;;;;;25.63;17.83;;;19.40;99.90;;;;;;5061777;28;20029;-68
2021/07/24 05:28:11;;;;;;;26.10;17.98;;;19.40;99.90;;;;;;5062214;28;20036;-73
2021/07/24 05:30:37;;;;;;;24.40;17.75;;;19.40;99.90;;;;;;5062293;28;20032;-70
2021/07/24 05:33:02;;;;;;;22.15;17.33;;;19.40;99.90;;;;;;5058984;28;20028;-71
2021/07/24 05:35:28;;;;;;;21.17;16.45;;;19.40;99.90;;;;;;5063808;28;20116;-70
2021/07/24 05:37:53;;;;;;;23.60;17.92;;;19.50;99.90;;;;;;5062235;28;20373;-70
2021/07/24 05:40:19;;;;;;;25.85;17.45;;;19.40;99.90;;;;;;5059826;28;20489;-70
2021/07/24 05:42:45;;;;;;;28.85;18.52;;;19.30;99.90;;;;;;5065106;28;20078;-70
2021/07/24 05:45:11;;;;;;;31.77;17.35;;;19.30;99.90;;;;;;5050742;28;20043;-70
2021/07/24 05:47:36;;;;;;;27.38;18.35;;;19.40;99.90;;;;;;5057803;28;20385;-70
2021/07/24 05:50:03;;;;;;;25.65;19.00;;;19.40;99.90;;;;;;5055263;28;20091;-70
2021/07/24 05:52:29;;;;;;;24.23;17.90;;;19.40;99.90;;;;;;5054018;28;20136;-70
2021/07/24 05:54:55;;;;;;;28.73;18.95;;;19.40;99.90;;;;;;5053070;28;20533;-70
2021/07/24 05:57:20;;;;;;;26.55;19.05;;;19.40;99.90;;;;;;5051719;28;20115;-70
2021/07/24 05:59:46;;;;;;;29.10;18.67;;;19.50;99.90;;;;;;5053932;28;20025;-70
2021/07/24 06:02:13;;;;;;;23.70;17.90;;;19.50;99.90;;;;;;5052696;28;20029;-70
2021/07/24 06:04:45;;;;;;;24.90;18.45;;;19.50;99.90;;;;;;5055595;28;20016;-70
2021/07/24 06:07:11;;;;;;;26.23;16.87;;;19.60;99.90;;;;;;5054691;28;20031;-70
2021/07/24 06:09:37;;;;;;;27.55;17.77;;;19.60;99.90;;;;;;5053157;28;20032;-70
2021/07/24 06:12:04;;;;;;;22.80;16.10;;;19.70;99.90;;;;;;5052572;28;20070;-69
2021/07/24 06:14:31;;;;;;;24.98;18.95;;;19.70;99.90;;;;;;5054636;28;20067;-70
2021/07/24 06:16:57;;;;;;;27.17;16.67;;;19.60;99.90;;;;;;5054545;28;20473;-70
2021/07/24 06:19:22;;;;;;;23.40;17.92;;;19.60;99.90;;;;;;5054941;28;20063;-69
2021/07/24 06:21:48;;;;;;;26.83;18.65;;;19.60;99.90;;;;;;5051508;28;20104;-70
2021/07/24 06:24:15;;;;;;;27.25;17.35;;;19.80;99.90;;;;;;5054764;28;20029;-70
2021/07/24 06:26:41;;;;;;;32.15;20.33;;;19.80;99.90;;;;;;5046083;28;20022;-69
2021/07/24 06:29:07;;;;;;;24.35;18.33;;;19.80;99.90;;;;;;5047032;28;20401;-69
2021/07/24 06:31:33;;;;;;;27.67;20.02;;;19.80;99.90;;;;;;5062059;28;20016;-69
2021/07/24 06:34:02;;;;;;;27.30;18.92;;;19.80;99.90;;;;;;5055178;28;20041;-70
2021/07/24 06:36:28;;;;;;;24.17;17.95;;;20.00;99.90;;;;;;5050081;28;20025;-70
2021/07/24 06:38:53;;;;;;;29.27;20.17;;;20.00;99.90;;;;;;5056633;28;20017;-69
2021/07/24 06:41:19;;;;;;;26.00;19.17;;;20.00;99.90;;;;;;5065132;28;20032;-69
2021/07/24 06:43:44;;;;;;;25.35;18.75;;;20.00;99.90;;;;;;5053681;28;20584;-70
2021/07/24 06:46:11;;;;;;;24.75;18.60;;;20.00;99.90;;;;;;5051572;28;20025;-70
2021/07/24 06:48:37;;;;;;;24.90;18.27;;;20.00;99.90;;;;;;5055037;28;20044;-69
2021/07/24 06:51:07;;;;;;;26.77;18.00;;;20.10;99.90;;;;;;5064211;28;20480;-70
2021/07/24 06:53:34;;;;;;;25.25;18.02;;;20.10;99.90;;;;;;5056139;28;20033;-70
2021/07/24 06:56:00;;;;;;;25.38;19.10;;;20.10;99.90;;;;;;5057341;28;20052;-69
2021/07/24 06:58:26;;;;;;;27.27;19.17;;;20.20;99.90;;;;;;5059590;28;20052;-71
2021/07/24 07:00:52;;;;;;;26.40;20.58;;;20.30;99.90;;;;;;5047261;28;20601;-70
2021/07/24 07:03:17;;;;;;;25.35;19.02;;;20.20;99.90;;;;;;5064495;28;20091;-70
2021/07/24 07:05:43;;;;;;;29.30;18.75;;;20.20;99.90;;;;;;5051737;28;20469;-70
2021/07/24 07:08:09;;;;;;;25.40;18.73;;;20.20;99.90;;;;;;5053013;28;20037;-70
2021/07/24 07:10:35;;;;;;;24.95;18.95;;;20.30;99.90;;;;;;5059489;28;20025;-69
2021/07/24 07:13:01;;;;;;;26.55;20.33;;;20.40;99.90;;;;;;5051690;28;20021;-69
2021/07/24 07:15:28;;;;;;;25.30;16.88;;;20.30;99.90;;;;;;5044913;28;20041;-70
2021/07/24 07:17:54;;;;;;;26.50;18.80;;;20.30;99.90;;;;;;5059088;28;20473;-70
2021/07/24 07:20:20;;;;;;;28.70;18.40;;;20.40;99.90;;;;;;5061310;28;20477;-70
2021/07/24 07:22:46;;;;;;;25.88;17.92;;;20.40;99.90;;;;;;5050549;28;20105;-70
2021/07/24 07:25:12;;;;;;;23.42;18.23;;;20.40;99.90;;;;;;5049455;28;20035;-70
2021/07/24 07:27:44;;;;;;;26.98;18.42;;;20.50;99.90;;;;;;5059427;28;20111;-70
2021/07/24 07:30:11;;;;;;;;;;;20.60;99.90;;;;;;5047417;28;20024;-70
2021/07/24 07:32:37;;;;;;;29.23;18.77;;;20.70;99.90;;;;;;5053988;28;19924;-70
2021/07/24 07:35:03;;;;;;;25.50;19.23;;;20.80;99.90;;;;;;5063026;28;20021;-70
2021/07/24 07:37:29;;;;;;;26.77;18.05;;;20.90;99.90;;;;;;5053424;28;20033;-69
2021/07/24 07:39:55;;;;;;;26.98;19.90;;;20.90;99.90;;;;;;5058427;28;20115;-70
2021/07/24 07:42:21;;;;;;;32.13;18.85;;;20.80;99.90;;;;;;5057174;28;20040;-70
2021/07/24 07:44:47;;;;;;;26.25;19.05;;;20.90;99.90;;;;;;5054603;28;20021;-70
2021/07/24 07:47:12;;;;;;;30.08;21.08;;;20.90;99.90;;;;;;5058545;28;20500;-70
2021/07/24 07:49:38;;;;;;;27.92;19.65;;;21.00;99.90;;;;;;5048477;28;20388;-70
2021/07/24 07:52:05;;;;;;;23.17;18.00;;;21.00;99.90;;;;;;5054309;28;20079;-70
2021/07/24 07:54:33;;;;;;;25.00;20.88;;;21.10;99.90;;;;;;5052940;28;20050;-69
2021/07/24 07:57:00;;;;;;;24.15;19.48;;;21.20;99.90;;;;;;5053418;28;20158;-70
2021/07/24 07:59:26;;;;;;;27.27;19.55;;;21.30;99.90;;;;;;5060598;28;20521;-70
2021/07/24 08:01:52;;;;;;;26.30;18.75;;;21.40;99.90;;;;;;5050590;28;20038;-73
2021/07/24 08:04:18;;;;;;;26.92;18.95;;;21.50;99.90;;;;;;5046473;28;20025;-73
2021/07/24 08:06:43;;;;;;;27.38;21.02;;;21.50;99.90;;;;;;5057207;28;20069;-73
2021/07/24 08:09:09;;;;;;;29.77;19.98;;;21.60;99.90;;;;;;5068005;28;20424;-73
2021/07/24 08:11:35;;;;;;;28.13;20.60;;;21.50;99.90;;;;;;5057366;28;20029;-69
2021/07/24 08:14:00;;;;;;;26.80;20.25;;;21.50;99.90;;;;;;5056336;28;20064;-69
2021/07/24 08:16:26;;;;;;;30.33;20.40;;;21.50;99.90;;;;;;5064894;28;20021;-70
2021/07/24 08:18:52;;;;;;;26.02;18.90;;;21.50;99.90;;;;;;5054495;28;20409;-70
2021/07/24 08:21:17;;;;;;;29.45;20.85;;;21.60;99.90;;;;;;5058154;28;20025;-70
2021/07/24 08:23:43;;;;;;;32.60;22.70;;;21.70;99.90;;;;;;5048398;28;20953;-70
2021/07/24 08:26:09;;;;;;;25.13;19.92;;;21.70;99.90;;;;;;5051402;28;20833;-69
2021/07/24 08:28:34;;;;;;;27.73;20.48;;;21.70;99.90;;;;;;5058488;28;20045;-69
2021/07/24 08:31:00;;;;;;;28.00;21.83;;;21.70;99.90;;;;;;5055586;28;20416;-70
2021/07/24 08:33:27;;;;;;;28.85;20.92;;;21.80;99.90;;;;;;5044903;28;20034;-70
2021/07/24 08:35:54;;;;;;;32.28;20.70;;;21.90;99.90;;;;;;5055065;28;20024;-70
2021/07/24 08:38:20;;;;;;;26.58;19.65;;;21.90;99.90;;;;;;5056764;28;20120;-70
2021/07/24 08:40:46;;;;;;;29.17;22.42;;;21.90;99.90;;;;;;5053885;28;20103;-70
2021/07/24 08:43:13;;;;;;;26.38;20.85;;;21.90;99.90;;;;;;5058675;28;20564;-70
2021/07/24 08:45:39;;;;;;;30.70;21.80;;;21.80;99.90;;;;;;5050321;28;20035;-70
2021/07/24 08:48:05;;;;;;;31.25;23.10;;;21.80;99.90;;;;;;5050887;28;20033;-70
2021/07/24 08:50:33;;;;;;;30.25;21.23;;;21.90;99.90;;;;;;5062294;28;20021;-70
2021/07/24 08:53:04;;;;;;;30.85;21.88;;;21.90;99.90;;;;;;5058563;28;20087;-70
2021/07/24 08:55:30;;;;;;;27.80;18.85;;;22.10;99.90;;;;;;5052159;28;20449;-70
2021/07/24 08:57:58;;;;;;;25.80;18.67;;;22.00;99.90;;;;;;5045766;28;20021;-70
2021/07/24 09:00:27;;;;;;;24.60;18.30;;;22.10;99.90;;;;;;5048237;28;20051;-70
2021/07/24 09:02:54;;;;;;;27.77;19.95;;;22.20;99.90;;;;;;5051074;28;20101;-70
2021/07/24 09:05:19;;;;;;;30.10;19.98;;;22.20;99.90;;;;;;5049854;28;20033;-70
2021/07/24 09:07:46;;;;;;;31.65;21.75;;;22.20;99.90;;;;;;5054234;28;20115;-70
2021/07/24 09:10:13;;;;;;;22.85;17.75;;;22.10;99.90;;;;;;5054145;28;20540;-70
2021/07/24 09:12:40;;;;;;;25.40;18.50;;;22.20;99.90;;;;;;5054265;28;20109;-70
2021/07/24 09:15:07;;;;;;;26.20;19.52;;;22.20;99.90;;;;;;5055468;28;20033;-70
2021/07/24 09:17:33;;;;;;;27.40;19.50;;;22.30;99.90;;;;;;5049164;28;20021;-69
2021/07/24 09:19:59;;;;;;;26.45;19.45;;;22.30;99.90;;;;;;5052386;28;20035;-70
2021/07/24 09:22:38;;;;;;;23.67;17.73;;;22.30;99.90;;;;;;5057466;28;20069;-70
2021/07/24 09:25:12;;;;;;;26.80;18.20;;;22.40;99.90;;;;;;5057006;28;20025;-70
2021/07/24 09:27:52;;;;;;;24.45;18.42;;;22.30;99.90;;;;;;5048977;28;20029;-70
2021/07/24 09:30:34;;;;;;;25.35;16.40;;;22.20;99.90;;;;;;5054631;28;20150;-69
2021/07/24 09:33:02;;;;;;;25.42;19.67;;;22.30;99.90;;;;;;5051583;28;20556;-70
2021/07/24 09:35:42;;;;;;;23.77;18.15;;;22.30;99.90;;;;;;5050014;28;20036;-70
2021/07/24 09:38:34;;;;;;;28.55;18.77;;;22.20;99.90;;;;;;5056381;28;20477;-68
2021/07/24 09:41:02;;;;;;;23.45;18.83;;;22.10;99.90;;;;;;5055638;28;20505;-69
2021/07/24 09:43:32;;;;;;;25.50;19.38;;;22.10;99.90;;;;;;5049193;28;20029;-70
2021/07/24 09:46:08;;;;;;;25.88;19.40;;;22.10;99.90;;;;;;5059962;28;20021;-70
2021/07/24 09:48:33;;;;;;;24.17;18.17;;;22.10;99.90;;;;;;5058471;28;20040;-72
2021/07/24 09:50:59;;;;;;;32.20;20.48;;;22.20;99.90;;;;;;5048217;28;20516;-70
2021/07/24 09:53:41;;;;;;;34.35;22.55;;;22.30;99.90;;;;;;5055357;28;20372;-69
2021/07/24 09:56:11;;;;;;;29.50;22.17;;;22.20;99.90;;;;;;5057055;28;20025;-70
2021/07/24 09:58:38;;;;;;;27.20;20.23;;;22.20;99.90;;;;;;5052179;28;20032;-69
2021/07/24 10:01:09;;;;;;;28.58;21.65;;;22.20;99.90;;;;;;5050008;28;20017;-69
2021/07/24 10:03:36;;;;;;;31.30;18.75;;;22.10;99.90;;;;;;5051503;28;20063;-72
2021/07/24 10:06:14;;;;;;;27.90;20.15;;;22.20;99.90;;;;;;5047136;28;20025;-69
2021/07/24 10:08:41;;;;;;;25.70;19.55;;;22.20;99.90;;;;;;5049186;28;20037;-70
2021/07/24 10:11:07;;;;;;;25.02;19.20;;;22.20;99.90;;;;;;5050887;28;20108;-69
2021/07/24 10:13:33;;;;;;;35.03;21.98;;;22.30;99.90;;;;;;5051310;28;20104;-72
2021/07/24 10:16:00;;;;;;;29.98;20.92;;;22.30;99.90;;;;;;5057771;28;20499;-69
2021/07/24 10:18:26;;;;;;;31.38;20.80;;;22.20;99.90;;;;;;5046987;28;20032;-69
2021/07/24 10:20:53;;;;;;;24.83;18.70;;;22.20;99.90;;;;;;5060414;28;20102;-69
2021/07/24 10:23:23;;;;;;;25.05;18.17;;;22.20;99.90;;;;;;5054263;28;20028;-69
2021/07/24 10:26:20;;;;;;;25.52;17.52;;;22.20;99.90;;;;;;5060317;28;20045;-69
2021/07/24 10:29:05;;;;;;;27.23;17.48;;;22.20;99.90;;;;;;5045962;28;20037;-69
2021/07/24 10:31:42;;;;;;;26.98;21.08;;;22.10;99.90;;;;;;5049694;28;20030;-69
2021/07/24 10:34:11;;;;;;;27.20;19.30;;;22.20;99.90;;;;;;5055376;28;20203;-69
2021/07/24 10:36:41;;;;;;;27.35;19.65;;;22.20;99.90;;;;;;5050199;28;20503;-69
2021/07/24 10:39:07;;;;;;;25.98;19.63;;;22.20;99.90;;;;;;5055692;28;20021;-69
2021/07/24 10:41:33;;;;;;;29.48;21.00;;;22.20;99.90;;;;;;5067778;28;20047;-69
2021/07/24 10:44:08;;;;;;;25.67;19.58;;;22.30;99.90;;;;;;5057472;28;20029;-70
2021/07/24 10:46:43;;;;;;;21.58;18.38;;;22.20;99.90;;;;;;5065533;28;20013;-69
2021/07/24 10:49:34;;;;;;;26.63;19.50;;;22.30;99.90;;;;;;5044322;28;20041;-69
2021/07/24 10:52:02;;;;;;;26.77;19.05;;;22.30;99.90;;;;;;5058803;28;20035;-69
2021/07/24 10:54:29;;;;;;;27.13;20.70;;;22.40;99.90;;;;;;5043932;28;20029;-69
2021/07/24 10:56:55;;;;;;;28.60;19.27;;;22.40;99.90;;;;;;5054405;28;20024;-69
2021/07/24 10:59:30;;;;;;;26.33;19.17;;;22.40;99.90;;;;;;5046534;28;20032;-69
2021/07/24 11:01:58;;;;;;;25.05;18.38;;;22.30;99.90;;;;;;5053998;28;20025;-69
2021/07/24 11:04:38;;;;;;;27.67;18.35;;;22.30;99.90;;;;;;5057841;28;20039;-69
2021/07/24 11:07:15;;;;;;;25.00;18.65;;;22.40;99.90;;;;;;5053330;28;20032;-69
2021/07/24 11:09:45;;;;;;;27.77;20.13;;;22.40;99.90;;;;;;5049224;28;20040;-69
2021/07/24 11:12:14;;;;;;;30.05;23.27;;;22.50;99.90;;;;;;5057705;28;20033;-69
2021/07/24 11:14:41;;;;;;;26.95;19.70;;;22.50;99.90;;;;;;5057898;28;20523;-70
2021/07/24 11:17:07;;;;;;;25.92;21.48;;;22.50;99.90;;;;;;5053926;28;20033;-69
2021/07/24 11:19:36;;;;;;;35.10;24.25;;;22.40;99.90;;;;;;5051045;28;20031;-70
2021/07/24 11:22:08;;;;;;;32.38;24.40;;;22.30;99.90;;;;;;5051632;28;20039;-69
2021/07/24 11:24:34;;;;;;;29.80;23.43;;;22.30;99.90;;;;;;5056074;28;20484;-69
2021/07/24 11:26:59;;;;;;;32.55;22.17;;;22.20;99.90;;;;;;5049041;28;20298;-70
2021/07/24 11:29:25;;;;;;;29.45;22.02;;;22.10;99.90;;;;;;5052271;28;20044;-70
2021/07/24 11:31:51;;;;;;;29.00;22.55;;;22.10;99.90;;;;;;5057469;28;20413;-70
2021/07/24 11:34:25;;;;;;;32.88;23.75;;;22.10;99.90;;;;;;5058713;28;20384;-69
2021/07/24 11:36:53;;;;;;;33.53;24.27;;;22.20;99.90;;;;;;5059203;28;20120;-70
2021/07/24 11:39:27;;;;;;;29.00;23.38;;;22.20;99.90;;;;;;5045147;28;20039;-70
2021/07/24 11:41:55;;;;;;;33.65;24.00;;;22.30;99.90;;;;;;5047064;28;20031;-70
2021/07/24 11:44:23;;;;;;;32.67;25.73;;;22.30;99.90;;;;;;5053626;28;20025;-71
2021/07/24 11:47:03;;;;;;;32.03;23.42;;;22.30;99.90;;;;;;5047837;28;20029;-69
2021/07/24 11:49:30;;;;;;;31.00;22.42;;;22.30;99.90;;;;;;5048371;28;20036;-69
2021/07/24 11:51:57;;;;;;;29.50;23.38;;;22.30;99.90;;;;;;5052940;28;20021;-70
2021/07/24 11:54:33;;;;;;;28.20;24.08;;;22.30;99.90;;;;;;5054549;28;20101;-70
2021/07/24 11:57:00;;;;;;;31.33;24.02;;;22.30;99.90;;;;;;5047199;28;20047;-70
2021/07/24 11:59:27;;;;;;;33.33;25.17;;;22.30;99.90;;;;;;5047955;28;20025;-71
2021/07/24 12:01:54;;;;;;;31.73;23.52;;;22.20;99.90;;;;;;5048175;28;20409;-70
2021/07/24 12:04:20;;;;;;;31.52;24.27;;;22.20;99.90;;;;;;5053410;28;20158;-71
2021/07/24 12:06:57;;;;;;;28.35;22.30;;;22.20;99.90;;;;;;5054403;28;20092;-71
2021/07/24 12:09:23;;;;;;;33.25;24.90;;;22.20;99.90;;;;;;5046389;28;20048;-71
2021/07/24 12:11:59;;;;;;;33.25;25.48;;;22.20;99.90;;;;;;5043286;28;20021;-70
2021/07/24 12:14:28;;;;;;;34.83;25.55;;;22.20;99.90;;;;;;5048437;28;20766;-70
2021/07/24 12:17:07;;;;;;;38.30;27.05;;;22.10;99.90;;;;;;5043310;28;20026;-69
2021/07/24 12:19:39;;;;;;;36.42;28.70;;;22.00;99.90;;;;;;5046149;28;20028;-69
2021/07/24 12:22:12;;;;;;;34.30;27.60;;;22.00;99.90;;;;;;5046195;28;20021;-70
2021/07/24 12:24:38;;;;;;;40.10;29.23;;;22.00;99.90;;;;;;5046866;28;20071;-71
2021/07/24 12:27:09;;;;;;;33.65;26.42;;;21.90;99.90;;;;;;5051265;28;20037;-71
2021/07/24 12:30:01;;;;;;;36.45;27.52;;;22.00;99.90;;;;;;5050651;28;20036;-73
2021/07/24 12:32:40;;;;;;;46.45;33.33;;;22.10;99.90;;;;;;5051723;28;20016;-73
2021/07/24 12:35:22;;;;;;;42.53;30.92;;;22.10;99.90;;;;;;5050184;28;20029;-72